sensor_id;sensor_type;location;lat;lon;timestamp;P1;durP1;ratioP1;P2;durP2;ratioP2
47529;SDS011;33272;51.922;7.730;2023-04-03T00:00:07;2.67;;;1.63;;
47529;SDS011;33272;51.922;7.730;2023-04-03T00:02:37;2.30;;;1.47;;
47529;SDS011;33272;51.922;7.730;2023-04-03T00:05:05;2.80;;;1.57;;
47529;SDS011;33272;51.922;7.730;2023-04-03T00:07:33;6.27;;;2.00;;
47529;SDS011;33272;51.922;7.730;2023-04-03T00:10:00;2.37;;;1.30;;
47529;SDS011;33272;51.922;7.730;2023-04-03T00:12:27;3.97;;;2.07;;
47529;SDS011;33272;51.922;7.730;2023-04-03T00:14:55;1.67;;;1.23;;
47529;SDS011;33272;51.922;7.730;2023-04-03T00:17:23;2.43;;;1.70;;
47529;SDS011;33272;51.922;7.730;2023-04-03T00:19:51;4.63;;;1.60;;
47529;SDS011;33272;51.922;7.730;2023-04-03T00:22:18;1.50;;;1.30;;
47529;SDS011;33272;51.922;7.730;2023-04-03T00:24:45;3.13;;;1.80;;
47529;SDS011;33272;51.922;7.730;2023-04-03T00:27:12;3.30;;;1.77;;
47529;SDS011;33272;51.922;7.730;2023-04-03T00:29:40;4.67;;;1.70;;
47529;SDS011;33272;51.922;7.730;2023-04-03T00:32:07;3.53;;;1.60;;
47529;SDS011;33272;51.922;7.730;2023-04-03T00:34:35;3.77;;;1.97;;
47529;SDS011;33272;51.922;7.730;2023-04-03T00:37:03;4.13;;;2.00;;
47529;SDS011;33272;51.922;7.730;2023-04-03T00:39:30;3.43;;;1.80;;
47529;SDS011;33272;51.922;7.730;2023-04-03T00:41:57;3.60;;;1.73;;
47529;SDS011;33272;51.922;7.730;2023-04-03T00:47:44;3.33;;;1.80;;
47529;SDS011;33272;51.922;7.730;2023-04-03T00:50:11;3.73;;;1.80;;
47529;SDS011;33272;51.922;7.730;2023-04-03T00:52:39;2.97;;;1.80;;
47529;SDS011;33272;51.922;7.730;2023-04-03T00:55:07;3.60;;;1.90;;
47529;SDS011;33272;51.922;7.730;2023-04-03T00:57:35;2.37;;;1.60;;
47529;SDS011;33272;51.922;7.730;2023-04-03T01:00:04;3.10;;;1.70;;
47529;SDS011;33272;51.922;7.730;2023-04-03T01:02:35;3.10;;;1.53;;
47529;SDS011;33272;51.922;7.730;2023-04-03T01:05:02;2.83;;;1.70;;
47529;SDS011;33272;51.922;7.730;2023-04-03T01:07:31;5.77;;;1.77;;
47529;SDS011;33272;51.922;7.730;2023-04-03T01:10:01;2.23;;;1.40;;
47529;SDS011;33272;51.922;7.730;2023-04-03T01:12:34;4.00;;;1.90;;
47529;SDS011;33272;51.922;7.730;2023-04-03T01:15:04;5.00;;;1.87;;
47529;SDS011;33272;51.922;7.730;2023-04-03T01:17:35;3.17;;;1.67;;
47529;SDS011;33272;51.922;7.730;2023-04-03T01:23:25;2.20;;;1.47;;
47529;SDS011;33272;51.922;7.730;2023-04-03T01:26:05;5.53;;;1.57;;
47529;SDS011;33272;51.922;7.730;2023-04-03T01:28:33;5.10;;;2.10;;
47529;SDS011;33272;51.922;7.730;2023-04-03T01:31:02;3.70;;;1.80;;
47529;SDS011;33272;51.922;7.730;2023-04-03T01:33:41;3.47;;;1.60;;
47529;SDS011;33272;51.922;7.730;2023-04-03T01:36:09;5.27;;;1.57;;
47529;SDS011;33272;51.922;7.730;2023-04-03T01:38:41;3.73;;;1.40;;
47529;SDS011;33272;51.922;7.730;2023-04-03T01:41:08;3.20;;;1.73;;
47529;SDS011;33272;51.922;7.730;2023-04-03T01:43:35;4.60;;;2.17;;
47529;SDS011;33272;51.922;7.730;2023-04-03T01:46:02;3.23;;;1.90;;
47529;SDS011;33272;51.922;7.730;2023-04-03T01:48:29;2.60;;;1.43;;
47529;SDS011;33272;51.922;7.730;2023-04-03T01:50:58;2.37;;;1.60;;
47529;SDS011;33272;51.922;7.730;2023-04-03T01:53:25;3.70;;;1.87;;
47529;SDS011;33272;51.922;7.730;2023-04-03T01:55:52;4.23;;;1.90;;
47529;SDS011;33272;51.922;7.730;2023-04-03T01:58:19;3.13;;;1.80;;
47529;SDS011;33272;51.922;7.730;2023-04-03T02:00:46;5.17;;;1.80;;
47529;SDS011;33272;51.922;7.730;2023-04-03T02:03:13;4.33;;;1.67;;
47529;SDS011;33272;51.922;7.730;2023-04-03T02:05:40;4.43;;;2.13;;
47529;SDS011;33272;51.922;7.730;2023-04-03T02:08:09;3.40;;;1.70;;
47529;SDS011;33272;51.922;7.730;2023-04-03T02:10:36;2.13;;;1.63;;
47529;SDS011;33272;51.922;7.730;2023-04-03T02:13:03;2.17;;;1.70;;
47529;SDS011;33272;51.922;7.730;2023-04-03T02:15:30;3.60;;;1.67;;
47529;SDS011;33272;51.922;7.730;2023-04-03T02:17:57;4.43;;;1.60;;
47529;SDS011;33272;51.922;7.730;2023-04-03T02:20:24;2.13;;;1.60;;
47529;SDS011;33272;51.922;7.730;2023-04-03T02:22:51;2.90;;;1.70;;
47529;SDS011;33272;51.922;7.730;2023-04-03T02:25:20;5.77;;;1.90;;
47529;SDS011;33272;51.922;7.730;2023-04-03T02:27:47;3.60;;;2.17;;
47529;SDS011;33272;51.922;7.730;2023-04-03T02:30:14;6.40;;;2.07;;
47529;SDS011;33272;51.922;7.730;2023-04-03T02:32:41;2.70;;;1.70;;
47529;SDS011;33272;51.922;7.730;2023-04-03T02:35:09;3.57;;;1.77;;
47529;SDS011;33272;51.922;7.730;2023-04-03T02:37:37;3.37;;;1.60;;
47529;SDS011;33272;51.922;7.730;2023-04-03T02:40:06;3.87;;;1.93;;
47529;SDS011;33272;51.922;7.730;2023-04-03T02:42:37;4.93;;;1.50;;
47529;SDS011;33272;51.922;7.730;2023-04-03T02:45:05;4.30;;;1.60;;
47529;SDS011;33272;51.922;7.730;2023-04-03T02:47:33;6.33;;;2.17;;
47529;SDS011;33272;51.922;7.730;2023-04-03T02:50:00;5.70;;;1.83;;
47529;SDS011;33272;51.922;7.730;2023-04-03T02:52:27;4.63;;;1.87;;
47529;SDS011;33272;51.922;7.730;2023-04-03T02:54:54;4.13;;;1.77;;
47529;SDS011;33272;51.922;7.730;2023-04-03T02:57:21;3.93;;;1.90;;
47529;SDS011;33272;51.922;7.730;2023-04-03T02:59:50;4.40;;;2.10;;
47529;SDS011;33272;51.922;7.730;2023-04-03T03:02:17;2.97;;;1.87;;
47529;SDS011;33272;51.922;7.730;2023-04-03T03:04:44;3.17;;;1.80;;
47529;SDS011;33272;51.922;7.730;2023-04-03T03:07:11;3.40;;;1.63;;
47529;SDS011;33272;51.922;7.730;2023-04-03T03:09:38;3.00;;;1.60;;
47529;SDS011;33272;51.922;7.730;2023-04-03T03:12:05;3.47;;;1.53;;
47529;SDS011;33272;51.922;7.730;2023-04-03T03:14:32;5.87;;;2.87;;
47529;SDS011;33272;51.922;7.730;2023-04-03T03:17:01;3.57;;;2.07;;
47529;SDS011;33272;51.922;7.730;2023-04-03T03:19:28;3.83;;;1.73;;
47529;SDS011;33272;51.922;7.730;2023-04-03T03:21:55;2.27;;;1.43;;
47529;SDS011;33272;51.922;7.730;2023-04-03T03:24:22;5.30;;;2.07;;
47529;SDS011;33272;51.922;7.730;2023-04-03T03:26:49;4.07;;;2.00;;
47529;SDS011;33272;51.922;7.730;2023-04-03T03:29:16;3.33;;;1.60;;
47529;SDS011;33272;51.922;7.730;2023-04-03T03:31:43;3.27;;;2.07;;
47529;SDS011;33272;51.922;7.730;2023-04-03T03:34:11;5.10;;;2.07;;
47529;SDS011;33272;51.922;7.730;2023-04-03T03:36:38;4.67;;;2.13;;
47529;SDS011;33272;51.922;7.730;2023-04-03T03:39:05;3.47;;;1.80;;
47529;SDS011;33272;51.922;7.730;2023-04-03T03:41:33;4.23;;;2.20;;
47529;SDS011;33272;51.922;7.730;2023-04-03T03:43:59;3.57;;;1.60;;
47529;SDS011;33272;51.922;7.730;2023-04-03T03:46:27;2.57;;;1.83;;
47529;SDS011;33272;51.922;7.730;2023-04-03T03:48:54;3.03;;;1.90;;
47529;SDS011;33272;51.922;7.730;2023-04-03T03:51:22;5.23;;;1.67;;
47529;SDS011;33272;51.922;7.730;2023-04-03T03:53:49;3.93;;;1.73;;
47529;SDS011;33272;51.922;7.730;2023-04-03T03:56:16;4.77;;;2.10;;
47529;SDS011;33272;51.922;7.730;2023-04-03T03:58:43;5.87;;;2.10;;
47529;SDS011;33272;51.922;7.730;2023-04-03T04:01:10;5.30;;;2.17;;
47529;SDS011;33272;51.922;7.730;2023-04-03T04:03:37;4.83;;;2.10;;
47529;SDS011;33272;51.922;7.730;2023-04-03T04:06:04;5.17;;;2.37;;
47529;SDS011;33272;51.922;7.730;2023-04-03T04:08:33;5.10;;;2.37;;
47529;SDS011;33272;51.922;7.730;2023-04-03T04:11:00;6.07;;;2.10;;
47529;SDS011;33272;51.922;7.730;2023-04-03T04:13:27;6.13;;;2.13;;
47529;SDS011;33272;51.922;7.730;2023-04-03T04:15:54;3.50;;;2.27;;
47529;SDS011;33272;51.922;7.730;2023-04-03T04:18:21;3.70;;;2.13;;
47529;SDS011;33272;51.922;7.730;2023-04-03T04:20:49;5.77;;;2.43;;
47529;SDS011;33272;51.922;7.730;2023-04-03T04:23:16;4.20;;;2.13;;
47529;SDS011;33272;51.922;7.730;2023-04-03T04:25:45;5.00;;;1.87;;
47529;SDS011;33272;51.922;7.730;2023-04-03T04:28:13;2.97;;;1.73;;
47529;SDS011;33272;51.922;7.730;2023-04-03T04:30:41;5.57;;;2.23;;
47529;SDS011;33272;51.922;7.730;2023-04-03T04:33:08;3.70;;;1.73;;
47529;SDS011;33272;51.922;7.730;2023-04-03T04:35:36;6.27;;;2.10;;
47529;SDS011;33272;51.922;7.730;2023-04-03T04:38:03;7.50;;;2.60;;
47529;SDS011;33272;51.922;7.730;2023-04-03T04:40:30;3.00;;;2.03;;
47529;SDS011;33272;51.922;7.730;2023-04-03T04:42:58;3.37;;;2.00;;
47529;SDS011;33272;51.922;7.730;2023-04-03T04:45:25;4.13;;;2.00;;
47529;SDS011;33272;51.922;7.730;2023-04-03T04:47:54;5.27;;;1.90;;
47529;SDS011;33272;51.922;7.730;2023-04-03T04:50:21;6.50;;;2.30;;
47529;SDS011;33272;51.922;7.730;2023-04-03T04:52:48;3.27;;;2.40;;
47529;SDS011;33272;51.922;7.730;2023-04-03T04:55:15;4.60;;;1.90;;
47529;SDS011;33272;51.922;7.730;2023-04-03T04:57:42;4.17;;;2.00;;
47529;SDS011;33272;51.922;7.730;2023-04-03T05:00:12;3.87;;;1.87;;
47529;SDS011;33272;51.922;7.730;2023-04-03T05:02:40;5.20;;;2.27;;
47529;SDS011;33272;51.922;7.730;2023-04-03T05:05:08;4.13;;;2.10;;
47529;SDS011;33272;51.922;7.730;2023-04-03T05:07:35;3.33;;;2.03;;
47529;SDS011;33272;51.922;7.730;2023-04-03T05:10:02;5.90;;;2.13;;
47529;SDS011;33272;51.922;7.730;2023-04-03T05:12:30;8.37;;;2.10;;
47529;SDS011;33272;51.922;7.730;2023-04-03T05:14:58;4.93;;;2.10;;
47529;SDS011;33272;51.922;7.730;2023-04-03T05:17:26;6.23;;;2.17;;
47529;SDS011;33272;51.922;7.730;2023-04-03T05:19:53;3.00;;;1.77;;
47529;SDS011;33272;51.922;7.730;2023-04-03T05:22:20;5.10;;;2.47;;
47529;SDS011;33272;51.922;7.730;2023-04-03T05:24:47;4.40;;;1.93;;
47529;SDS011;33272;51.922;7.730;2023-04-03T05:27:14;3.33;;;1.57;;
47529;SDS011;33272;51.922;7.730;2023-04-03T05:29:41;4.90;;;2.17;;
47529;SDS011;33272;51.922;7.730;2023-04-03T05:32:09;3.73;;;1.93;;
47529;SDS011;33272;51.922;7.730;2023-04-03T05:34:38;5.13;;;1.90;;
47529;SDS011;33272;51.922;7.730;2023-04-03T05:37:05;4.63;;;2.13;;
47529;SDS011;33272;51.922;7.730;2023-04-03T05:39:32;4.90;;;1.77;;
47529;SDS011;33272;51.922;7.730;2023-04-03T05:41:59;5.97;;;2.20;;
47529;SDS011;33272;51.922;7.730;2023-04-03T05:44:26;4.37;;;2.13;;
47529;SDS011;33272;51.922;7.730;2023-04-03T05:46:53;4.10;;;2.13;;
47529;SDS011;33272;51.922;7.730;2023-04-03T05:49:20;3.93;;;1.77;;
47529;SDS011;33272;51.922;7.730;2023-04-03T05:51:49;4.20;;;2.10;;
47529;SDS011;33272;51.922;7.730;2023-04-03T05:54:17;5.10;;;1.90;;
47529;SDS011;33272;51.922;7.730;2023-04-03T05:56:48;7.27;;;1.97;;
47529;SDS011;33272;51.922;7.730;2023-04-03T05:59:15;4.60;;;1.93;;
47529;SDS011;33272;51.922;7.730;2023-04-03T06:01:42;3.77;;;2.00;;
47529;SDS011;33272;51.922;7.730;2023-04-03T06:04:10;4.60;;;2.37;;
47529;SDS011;33272;51.922;7.730;2023-04-03T06:06:44;5.10;;;2.07;;
47529;SDS011;33272;51.922;7.730;2023-04-03T06:09:15;3.00;;;1.57;;
47529;SDS011;33272;51.922;7.730;2023-04-03T06:11:42;5.23;;;2.07;;
47529;SDS011;33272;51.922;7.730;2023-04-03T06:14:10;2.37;;;1.70;;
47529;SDS011;33272;51.922;7.730;2023-04-03T06:16:37;5.17;;;2.07;;
47529;SDS011;33272;51.922;7.730;2023-04-03T06:19:05;5.03;;;1.90;;
47529;SDS011;33272;51.922;7.730;2023-04-03T06:21:33;3.57;;;1.90;;
47529;SDS011;33272;51.922;7.730;2023-04-03T06:24:00;4.13;;;2.00;;
47529;SDS011;33272;51.922;7.730;2023-04-03T06:26:29;5.23;;;2.40;;
47529;SDS011;33272;51.922;7.730;2023-04-03T06:28:57;3.23;;;1.80;;
47529;SDS011;33272;51.922;7.730;2023-04-03T06:31:24;4.97;;;1.90;;
47529;SDS011;33272;51.922;7.730;2023-04-03T06:33:51;5.43;;;2.13;;
47529;SDS011;33272;51.922;7.730;2023-04-03T06:36:18;4.97;;;2.03;;
47529;SDS011;33272;51.922;7.730;2023-04-03T06:38:46;3.37;;;2.03;;
47529;SDS011;33272;51.922;7.730;2023-04-03T06:41:14;5.53;;;1.83;;
47529;SDS011;33272;51.922;7.730;2023-04-03T06:43:43;3.67;;;2.30;;
47529;SDS011;33272;51.922;7.730;2023-04-03T06:46:12;4.27;;;2.40;;
47529;SDS011;33272;51.922;7.730;2023-04-03T06:48:41;3.80;;;1.80;;
47529;SDS011;33272;51.922;7.730;2023-04-03T06:51:11;2.93;;;1.63;;
47529;SDS011;33272;51.922;7.730;2023-04-03T06:53:46;4.70;;;2.20;;
47529;SDS011;33272;51.922;7.730;2023-04-03T06:56:14;4.47;;;2.07;;
47529;SDS011;33272;51.922;7.730;2023-04-03T06:58:41;4.13;;;2.17;;
47529;SDS011;33272;51.922;7.730;2023-04-03T07:01:11;6.83;;;2.30;;
47529;SDS011;33272;51.922;7.730;2023-04-03T07:03:40;5.87;;;2.20;;
47529;SDS011;33272;51.922;7.730;2023-04-03T07:06:08;5.70;;;2.10;;
47529;SDS011;33272;51.922;7.730;2023-04-03T07:08:38;4.83;;;2.07;;
47529;SDS011;33272;51.922;7.730;2023-04-03T07:11:05;4.37;;;2.13;;
47529;SDS011;33272;51.922;7.730;2023-04-03T07:13:33;5.93;;;1.90;;
47529;SDS011;33272;51.922;7.730;2023-04-03T07:16:02;4.70;;;2.20;;
47529;SDS011;33272;51.922;7.730;2023-04-03T07:18:31;4.13;;;1.80;;
47529;SDS011;33272;51.922;7.730;2023-04-03T07:20:58;3.30;;;1.80;;
47529;SDS011;33272;51.922;7.730;2023-04-03T07:23:26;4.90;;;2.27;;
47529;SDS011;33272;51.922;7.730;2023-04-03T07:25:53;4.43;;;1.70;;
47529;SDS011;33272;51.922;7.730;2023-04-03T07:28:21;4.87;;;2.00;;
47529;SDS011;33272;51.922;7.730;2023-04-03T07:30:50;5.13;;;1.90;;
47529;SDS011;33272;51.922;7.730;2023-04-03T07:33:21;2.60;;;1.73;;
47529;SDS011;33272;51.922;7.730;2023-04-03T07:35:49;4.67;;;1.77;;
47529;SDS011;33272;51.922;7.730;2023-04-03T07:38:16;4.13;;;1.67;;
47529;SDS011;33272;51.922;7.730;2023-04-03T07:40:45;3.10;;;1.73;;
47529;SDS011;33272;51.922;7.730;2023-04-03T07:43:13;3.03;;;1.80;;
47529;SDS011;33272;51.922;7.730;2023-04-03T07:45:40;5.27;;;1.57;;
47529;SDS011;33272;51.922;7.730;2023-04-03T07:48:09;2.53;;;1.63;;
47529;SDS011;33272;51.922;7.730;2023-04-03T07:50:39;2.73;;;1.50;;
47529;SDS011;33272;51.922;7.730;2023-04-03T07:53:06;3.80;;;1.73;;
47529;SDS011;33272;51.922;7.730;2023-04-03T07:55:33;4.23;;;1.83;;
47529;SDS011;33272;51.922;7.730;2023-04-03T07:58:07;2.97;;;1.80;;
47529;SDS011;33272;51.922;7.730;2023-04-03T08:00:35;2.37;;;1.40;;
47529;SDS011;33272;51.922;7.730;2023-04-03T08:03:03;3.70;;;1.57;;
47529;SDS011;33272;51.922;7.730;2023-04-03T08:05:31;4.53;;;1.50;;
47529;SDS011;33272;51.922;7.730;2023-04-03T08:08:03;2.73;;;1.40;;
47529;SDS011;33272;51.922;7.730;2023-04-03T08:10:31;2.87;;;1.30;;
47529;SDS011;33272;51.922;7.730;2023-04-03T08:12:58;3.27;;;1.80;;
47529;SDS011;33272;51.922;7.730;2023-04-03T08:15:25;2.47;;;1.37;;
47529;SDS011;33272;51.922;7.730;2023-04-03T08:17:52;4.30;;;1.60;;
47529;SDS011;33272;51.922;7.730;2023-04-03T08:20:19;3.33;;;1.73;;
47529;SDS011;33272;51.922;7.730;2023-04-03T08:22:47;2.87;;;1.63;;
47529;SDS011;33272;51.922;7.730;2023-04-03T08:25:15;3.03;;;1.30;;
47529;SDS011;33272;51.922;7.730;2023-04-03T08:27:43;3.33;;;1.73;;
47529;SDS011;33272;51.922;7.730;2023-04-03T08:30:10;3.20;;;1.20;;
47529;SDS011;33272;51.922;7.730;2023-04-03T08:32:38;3.17;;;1.27;;
47529;SDS011;33272;51.922;7.730;2023-04-03T08:35:07;3.77;;;1.47;;
47529;SDS011;33272;51.922;7.730;2023-04-03T08:37:35;2.67;;;1.60;;
47529;SDS011;33272;51.922;7.730;2023-04-03T08:40:03;2.47;;;1.20;;
47529;SDS011;33272;51.922;7.730;2023-04-03T08:42:38;2.83;;;1.40;;
47529;SDS011;33272;51.922;7.730;2023-04-03T08:45:17;2.20;;;1.37;;
47529;SDS011;33272;51.922;7.730;2023-04-03T08:47:53;2.50;;;1.20;;
47529;SDS011;33272;51.922;7.730;2023-04-03T08:50:29;2.30;;;1.10;;
47529;SDS011;33272;51.922;7.730;2023-04-03T08:53:00;3.00;;;1.30;;
47529;SDS011;33272;51.922;7.730;2023-04-03T08:55:32;2.60;;;1.33;;
47529;SDS011;33272;51.922;7.730;2023-04-03T08:58:09;2.50;;;1.10;;
47529;SDS011;33272;51.922;7.730;2023-04-03T09:00:40;3.37;;;1.40;;
47529;SDS011;33272;51.922;7.730;2023-04-03T09:03:13;3.93;;;1.50;;
47529;SDS011;33272;51.922;7.730;2023-04-03T09:05:44;3.17;;;1.57;;
47529;SDS011;33272;51.922;7.730;2023-04-03T09:08:18;3.40;;;1.43;;
47529;SDS011;33272;51.922;7.730;2023-04-03T09:10:52;2.83;;;1.10;;
47529;SDS011;33272;51.922;7.730;2023-04-03T09:13:34;1.33;;;0.90;;
47529;SDS011;33272;51.922;7.730;2023-04-03T09:16:15;1.83;;;1.60;;
47529;SDS011;33272;51.922;7.730;2023-04-03T09:18:52;2.33;;;1.13;;
47529;SDS011;33272;51.922;7.730;2023-04-03T09:21:27;2.77;;;1.27;;
47529;SDS011;33272;51.922;7.730;2023-04-03T09:24:02;2.03;;;1.33;;
47529;SDS011;33272;51.922;7.730;2023-04-03T09:26:33;1.60;;;1.10;;
47529;SDS011;33272;51.922;7.730;2023-04-03T09:29:11;2.00;;;1.13;;
47529;SDS011;33272;51.922;7.730;2023-04-03T09:31:43;2.83;;;1.57;;
47529;SDS011;33272;51.922;7.730;2023-04-03T09:34:15;2.90;;;1.43;;
47529;SDS011;33272;51.922;7.730;2023-04-03T09:36:49;2.23;;;1.23;;
47529;SDS011;33272;51.922;7.730;2023-04-03T09:39:19;2.17;;;1.40;;
47529;SDS011;33272;51.922;7.730;2023-04-03T09:41:58;2.70;;;1.30;;
47529;SDS011;33272;51.922;7.730;2023-04-03T09:44:29;3.03;;;1.30;;
47529;SDS011;33272;51.922;7.730;2023-04-03T09:46:59;1.50;;;1.00;;
47529;SDS011;33272;51.922;7.730;2023-04-03T09:49:43;2.50;;;1.50;;
47529;SDS011;33272;51.922;7.730;2023-04-03T09:52:22;1.93;;;1.17;;
47529;SDS011;33272;51.922;7.730;2023-04-03T09:54:52;2.90;;;1.57;;
47529;SDS011;33272;51.922;7.730;2023-04-03T09:57:19;1.90;;;1.20;;
47529;SDS011;33272;51.922;7.730;2023-04-03T09:59:47;4.47;;;1.20;;
47529;SDS011;33272;51.922;7.730;2023-04-03T10:02:33;2.30;;;1.00;;
47529;SDS011;33272;51.922;7.730;2023-04-03T10:05:04;1.70;;;1.03;;
47529;SDS011;33272;51.922;7.730;2023-04-03T10:08:07;1.87;;;1.20;;
47529;SDS011;33272;51.922;7.730;2023-04-03T10:10:47;2.27;;;1.23;;
47529;SDS011;33272;51.922;7.730;2023-04-03T10:13:31;1.37;;;0.90;;
47529;SDS011;33272;51.922;7.730;2023-04-03T10:16:01;2.53;;;1.10;;
47529;SDS011;33272;51.922;7.730;2023-04-03T10:18:37;2.10;;;1.20;;
47529;SDS011;33272;51.922;7.730;2023-04-03T10:21:13;1.57;;;1.17;;
47529;SDS011;33272;51.922;7.730;2023-04-03T10:23:54;1.50;;;0.87;;
47529;SDS011;33272;51.922;7.730;2023-04-03T10:26:35;2.50;;;1.10;;
47529;SDS011;33272;51.922;7.730;2023-04-03T10:29:15;2.77;;;1.13;;
47529;SDS011;33272;51.922;7.730;2023-04-03T10:31:58;2.73;;;1.10;;
47529;SDS011;33272;51.922;7.730;2023-04-03T10:34:35;2.63;;;1.10;;
47529;SDS011;33272;51.922;7.730;2023-04-03T10:37:10;1.70;;;1.07;;
47529;SDS011;33272;51.922;7.730;2023-04-03T10:39:50;1.93;;;1.07;;
47529;SDS011;33272;51.922;7.730;2023-04-03T10:42:24;2.03;;;1.20;;
47529;SDS011;33272;51.922;7.730;2023-04-03T10:45:06;2.13;;;1.37;;
47529;SDS011;33272;51.922;7.730;2023-04-03T10:47:49;1.70;;;1.03;;
47529;SDS011;33272;51.922;7.730;2023-04-03T10:50:31;2.20;;;1.20;;
47529;SDS011;33272;51.922;7.730;2023-04-03T10:53:11;3.13;;;1.27;;
47529;SDS011;33272;51.922;7.730;2023-04-03T10:55:50;2.40;;;1.40;;
47529;SDS011;33272;51.922;7.730;2023-04-03T10:58:26;2.23;;;1.10;;
47529;SDS011;33272;51.922;7.730;2023-04-03T11:00:59;2.67;;;1.33;;
47529;SDS011;33272;51.922;7.730;2023-04-03T11:03:35;2.30;;;1.10;;
47529;SDS011;33272;51.922;7.730;2023-04-03T11:06:07;1.57;;;1.00;;
47529;SDS011;33272;51.922;7.730;2023-04-03T11:08:38;3.93;;;1.17;;
47529;SDS011;33272;51.922;7.730;2023-04-03T11:11:13;1.90;;;1.13;;
47529;SDS011;33272;51.922;7.730;2023-04-03T11:13:45;3.50;;;1.20;;
47529;SDS011;33272;51.922;7.730;2023-04-03T11:16:18;2.33;;;1.10;;
47529;SDS011;33272;51.922;7.730;2023-04-03T11:18:54;1.57;;;1.03;;
47529;SDS011;33272;51.922;7.730;2023-04-03T11:21:27;2.00;;;1.20;;
47529;SDS011;33272;51.922;7.730;2023-04-03T11:23:59;3.40;;;1.17;;
47529;SDS011;33272;51.922;7.730;2023-04-03T11:26:35;1.83;;;1.30;;
47529;SDS011;33272;51.922;7.730;2023-04-03T11:29:08;1.93;;;1.00;;
47529;SDS011;33272;51.922;7.730;2023-04-03T11:31:42;2.03;;;1.20;;
47529;SDS011;33272;51.922;7.730;2023-04-03T11:34:31;3.00;;;1.20;;
47529;SDS011;33272;51.922;7.730;2023-04-03T11:37:05;1.83;;;1.10;;
47529;SDS011;33272;51.922;7.730;2023-04-03T11:39:44;2.37;;;1.30;;
47529;SDS011;33272;51.922;7.730;2023-04-03T11:42:24;2.23;;;1.17;;
47529;SDS011;33272;51.922;7.730;2023-04-03T11:45:17;2.23;;;1.20;;
47529;SDS011;33272;51.922;7.730;2023-04-03T11:48:05;3.03;;;1.60;;
47529;SDS011;33272;51.922;7.730;2023-04-03T11:50:54;2.80;;;1.20;;
47529;SDS011;33272;51.922;7.730;2023-04-03T11:53:29;4.73;;;1.70;;
47529;SDS011;33272;51.922;7.730;2023-04-03T11:56:01;2.23;;;1.60;;
47529;SDS011;33272;51.922;7.730;2023-04-03T11:58:32;3.40;;;1.50;;
47529;SDS011;33272;51.922;7.730;2023-04-03T12:01:05;2.23;;;1.23;;
47529;SDS011;33272;51.922;7.730;2023-04-03T12:12:56;3.13;;;1.60;;
47529;SDS011;33272;51.922;7.730;2023-04-03T12:24:49;3.57;;;1.30;;
47529;SDS011;33272;51.922;7.730;2023-04-03T12:27:20;4.37;;;1.80;;
47529;SDS011;33272;51.922;7.730;2023-04-03T12:29:54;4.93;;;1.20;;
47529;SDS011;33272;51.922;7.730;2023-04-03T12:32:40;2.30;;;1.30;;
47529;SDS011;33272;51.922;7.730;2023-04-03T12:35:29;2.27;;;1.17;;
47529;SDS011;33272;51.922;7.730;2023-04-03T12:41:26;2.33;;;1.10;;
47529;SDS011;33272;51.922;7.730;2023-04-03T12:44:06;3.50;;;1.40;;
47529;SDS011;33272;51.922;7.730;2023-04-03T12:46:53;2.37;;;1.37;;
47529;SDS011;33272;51.922;7.730;2023-04-03T12:49:30;2.50;;;1.27;;
47529;SDS011;33272;51.922;7.730;2023-04-03T12:52:02;4.23;;;1.13;;
47529;SDS011;33272;51.922;7.730;2023-04-03T12:54:34;3.60;;;1.63;;
47529;SDS011;33272;51.922;7.730;2023-04-03T12:57:11;4.43;;;1.40;;
47529;SDS011;33272;51.922;7.730;2023-04-03T12:59:43;2.37;;;1.10;;
47529;SDS011;33272;51.922;7.730;2023-04-03T13:02:18;3.90;;;1.43;;
47529;SDS011;33272;51.922;7.730;2023-04-03T13:04:49;2.77;;;1.40;;
47529;SDS011;33272;51.922;7.730;2023-04-03T13:07:22;2.27;;;1.20;;
47529;SDS011;33272;51.922;7.730;2023-04-03T13:10:02;2.90;;;1.43;;
47529;SDS011;33272;51.922;7.730;2023-04-03T13:12:45;2.07;;;1.47;;
47529;SDS011;33272;51.922;7.730;2023-04-03T13:15:17;2.07;;;1.40;;
47529;SDS011;33272;51.922;7.730;2023-04-03T13:17:47;3.10;;;1.30;;
47529;SDS011;33272;51.922;7.730;2023-04-03T13:20:18;3.87;;;1.10;;
47529;SDS011;33272;51.922;7.730;2023-04-03T13:22:51;1.77;;;1.30;;
47529;SDS011;33272;51.922;7.730;2023-04-03T13:25:27;2.47;;;1.53;;
47529;SDS011;33272;51.922;7.730;2023-04-03T13:27:59;3.70;;;1.43;;
47529;SDS011;33272;51.922;7.730;2023-04-03T13:30:29;3.17;;;1.40;;
47529;SDS011;33272;51.922;7.730;2023-04-03T13:32:59;3.30;;;1.40;;
47529;SDS011;33272;51.922;7.730;2023-04-03T13:35:31;1.73;;;1.10;;
47529;SDS011;33272;51.922;7.730;2023-04-03T13:38:05;2.70;;;1.50;;
47529;SDS011;33272;51.922;7.730;2023-04-03T13:40:49;2.27;;;1.33;;
47529;SDS011;33272;51.922;7.730;2023-04-03T13:43:20;2.93;;;1.50;;
47529;SDS011;33272;51.922;7.730;2023-04-03T13:45:54;2.37;;;1.73;;
47529;SDS011;33272;51.922;7.730;2023-04-03T13:48:25;2.17;;;1.33;;
47529;SDS011;33272;51.922;7.730;2023-04-03T13:50:54;5.53;;;1.60;;
47529;SDS011;33272;51.922;7.730;2023-04-03T13:53:26;2.03;;;1.30;;
47529;SDS011;33272;51.922;7.730;2023-04-03T13:55:56;2.97;;;1.53;;
47529;SDS011;33272;51.922;7.730;2023-04-03T13:58:32;2.20;;;1.37;;
47529;SDS011;33272;51.922;7.730;2023-04-03T14:01:06;3.23;;;1.50;;
47529;SDS011;33272;51.922;7.730;2023-04-03T14:03:40;3.30;;;1.20;;
47529;SDS011;33272;51.922;7.730;2023-04-03T14:06:11;2.97;;;1.27;;
47529;SDS011;33272;51.922;7.730;2023-04-03T14:08:41;5.13;;;1.50;;
47529;SDS011;33272;51.922;7.730;2023-04-03T14:11:13;4.73;;;1.67;;
47529;SDS011;33272;51.922;7.730;2023-04-03T14:13:44;3.30;;;1.73;;
47529;SDS011;33272;51.922;7.730;2023-04-03T14:16:13;3.07;;;1.20;;
47529;SDS011;33272;51.922;7.730;2023-04-03T14:18:42;3.97;;;1.33;;
47529;SDS011;33272;51.922;7.730;2023-04-03T14:21:10;5.13;;;1.63;;
47529;SDS011;33272;51.922;7.730;2023-04-03T14:23:39;2.53;;;1.00;;
47529;SDS011;33272;51.922;7.730;2023-04-03T14:26:08;3.03;;;1.57;;
47529;SDS011;33272;51.922;7.730;2023-04-03T14:28:41;2.57;;;1.40;;
47529;SDS011;33272;51.922;7.730;2023-04-03T14:31:09;1.47;;;1.23;;
47529;SDS011;33272;51.922;7.730;2023-04-03T14:33:37;1.90;;;1.40;;
47529;SDS011;33272;51.922;7.730;2023-04-03T14:36:10;3.13;;;1.73;;
47529;SDS011;33272;51.922;7.730;2023-04-03T14:38:40;3.83;;;1.67;;
47529;SDS011;33272;51.922;7.730;2023-04-03T14:41:08;3.70;;;1.43;;
47529;SDS011;33272;51.922;7.730;2023-04-03T14:43:41;3.43;;;1.30;;
47529;SDS011;33272;51.922;7.730;2023-04-03T14:46:11;4.87;;;1.60;;
47529;SDS011;33272;51.922;7.730;2023-04-03T14:48:41;2.63;;;1.50;;
47529;SDS011;33272;51.922;7.730;2023-04-03T14:51:10;4.77;;;1.50;;
47529;SDS011;33272;51.922;7.730;2023-04-03T14:53:38;5.43;;;1.70;;
47529;SDS011;33272;51.922;7.730;2023-04-03T14:56:10;3.30;;;1.37;;
47529;SDS011;33272;51.922;7.730;2023-04-03T14:58:42;2.60;;;1.30;;
47529;SDS011;33272;51.922;7.730;2023-04-03T15:01:14;1.97;;;1.33;;
47529;SDS011;33272;51.922;7.730;2023-04-03T15:03:41;1.50;;;1.40;;
47529;SDS011;33272;51.922;7.730;2023-04-03T15:06:08;3.67;;;1.53;;
47529;SDS011;33272;51.922;7.730;2023-04-03T15:08:37;3.30;;;1.40;;
47529;SDS011;33272;51.922;7.730;2023-04-03T15:11:06;5.60;;;1.70;;
47529;SDS011;33272;51.922;7.730;2023-04-03T15:13:34;3.63;;;1.30;;
47529;SDS011;33272;51.922;7.730;2023-04-03T15:16:02;2.07;;;1.10;;
47529;SDS011;33272;51.922;7.730;2023-04-03T15:18:31;2.47;;;1.60;;
47529;SDS011;33272;51.922;7.730;2023-04-03T15:21:03;2.47;;;1.60;;
47529;SDS011;33272;51.922;7.730;2023-04-03T15:23:31;2.47;;;1.23;;
47529;SDS011;33272;51.922;7.730;2023-04-03T15:25:58;2.57;;;1.30;;
47529;SDS011;33272;51.922;7.730;2023-04-03T15:28:26;3.70;;;1.50;;
47529;SDS011;33272;51.922;7.730;2023-04-03T15:30:59;2.33;;;1.60;;
47529;SDS011;33272;51.922;7.730;2023-04-03T15:33:27;3.23;;;1.47;;
47529;SDS011;33272;51.922;7.730;2023-04-03T15:35:54;3.30;;;1.27;;